WZZ1578 LICC-EYVI
Flight info
| Callsign | WZZ1578 |
|---|---|
| Flight time | 3h 15m |
| Altitude | 36000 |
| Route | BUDIN DCT SOBRI DCT EVINO DCT BUMOK/N0445F350 DCT VEBAL/N0442F370 DCT MOCON DCT BABKO DCT BULEP DCT UNPEG DCT OFEDE DCT LIZUP DCT DIMTA |
| Aircraft | A320/M-SDE1E2E3FGIJ1J4RWXY/LB1 |
Departure
| Time | 2026-05-04 07:14 |
|---|---|
| Airport | Catania-Fontanarossa Airport (LICC) |
Arrival
| Time | 2026-05-04 10:29 |
|---|---|
| Airport | Vilnius International Airport (EYVI) |
| Time | Latitude | Longitude | Altitude | Speed | Heading |
|---|---|---|---|---|---|
| 2026-05-04 06:50 | 37.46845 | 15.05793 | 43 ft | 0 kts | 354° |
| 2026-05-04 07:05 | 37.46845 | 15.05794 | 43 ft | 0 kts | 354° |
| 2026-05-04 07:05 | 37.46835 | 15.05795 | 43 ft | 2 kts | 354° |
| 2026-05-04 07:05 | 37.46819 | 15.05797 | 43 ft | 2 kts | 354° |
| 2026-05-04 07:06 | 37.46789 | 15.05801 | 43 ft | 2 kts | 3° |
| 2026-05-04 07:06 | 37.46775 | 15.05793 | 43 ft | 2 kts | 50° |
| 2026-05-04 07:06 | 37.46770 | 15.05780 | 43 ft | 0 kts | 81° |
| 2026-05-04 07:07 | 37.46769 | 15.05771 | 44 ft | 0 kts | 84° |
| 2026-05-04 07:09 | 37.46770 | 15.05777 | 44 ft | 3 kts | 83° |
| 2026-05-04 07:09 | 37.46778 | 15.05857 | 41 ft | 14 kts | 84° |
| 2026-05-04 07:10 | 37.46788 | 15.06014 | 37 ft | 21 kts | 83° |
| 2026-05-04 07:10 | 37.46809 | 15.06229 | 33 ft | 25 kts | 83° |
| 2026-05-04 07:12 | 37.46925 | 15.07615 | 30 ft | 19 kts | 83° |
| 2026-05-04 07:12 | 37.46940 | 15.07789 | 28 ft | 19 kts | 83° |
| 2026-05-04 07:12 | 37.46954 | 15.07959 | 28 ft | 19 kts | 84° |
| 2026-05-04 07:12 | 37.46903 | 15.08087 | 28 ft | 18 kts | 167° |
| 2026-05-04 07:13 | 37.46787 | 15.08087 | 28 ft | 12 kts | 214° |
| 2026-05-04 07:13 | 37.46787 | 15.07982 | 28 ft | 12 kts | 274° |
| 2026-05-04 07:13 | 37.46767 | 15.07725 | 28 ft | 61 kts | 264° |
| 2026-05-04 07:14 | 37.46388 | 15.02812 | 1495 ft | 162 kts | 265° |
| 2026-05-04 07:14 | 37.46275 | 15.01385 | 2192 ft | 163 kts | 265° |
| 2026-05-04 07:15 | 37.46154 | 14.99929 | 2885 ft | 164 kts | 265° |
| 2026-05-04 07:15 | 37.46033 | 14.98500 | 3527 ft | 167 kts | 265° |
| 2026-05-04 07:15 | 37.45904 | 14.96977 | 3978 ft | 183 kts | 265° |
| 2026-05-04 07:15 | 37.45761 | 14.95289 | 4422 ft | 200 kts | 265° |
| 2026-05-04 07:16 | 37.45601 | 14.93415 | 4773 ft | 224 kts | 265° |
| 2026-05-04 07:16 | 37.45428 | 14.91411 | 5416 ft | 235 kts | 265° |
| 2026-05-04 07:16 | 37.45245 | 14.89351 | 6284 ft | 237 kts | 266° |
| 2026-05-04 07:16 | 37.45064 | 14.87304 | 7110 ft | 240 kts | 266° |
| 2026-05-04 07:17 | 37.44879 | 14.85207 | 7919 ft | 244 kts | 267° |
| 2026-05-04 07:17 | 37.44688 | 14.83037 | 8722 ft | 247 kts | 267° |
| 2026-05-04 07:17 | 37.44495 | 14.80832 | 9507 ft | 251 kts | 268° |
| 2026-05-04 07:17 | 37.44561 | 14.78660 | 10228 ft | 250 kts | 290° |
| 2026-05-04 07:18 | 37.45373 | 14.76780 | 10949 ft | 248 kts | 315° |
| 2026-05-04 07:18 | 37.46780 | 14.75546 | 11669 ft | 250 kts | 340° |
| 2026-05-04 07:18 | 37.48484 | 14.75112 | 12411 ft | 253 kts | 352° |
| 2026-05-04 07:18 | 37.50241 | 14.74881 | 13156 ft | 255 kts | 353° |
| 2026-05-04 07:19 | 37.52017 | 14.74655 | 13898 ft | 256 kts | 352° |
| 2026-05-04 07:19 | 37.53810 | 14.74420 | 14639 ft | 258 kts | 352° |
| 2026-05-04 07:19 | 37.55595 | 14.74183 | 15207 ft | 265 kts | 352° |
| 2026-05-04 07:19 | 37.57499 | 14.73928 | 15516 ft | 282 kts | 352° |
| 2026-05-04 07:20 | 37.59527 | 14.73654 | 15819 ft | 298 kts | 352° |
| 2026-05-04 07:20 | 37.61650 | 14.73367 | 16107 ft | 314 kts | 352° |
| 2026-05-04 07:20 | 37.63848 | 14.73071 | 16498 ft | 325 kts | 353° |
| 2026-05-04 07:20 | 37.66134 | 14.72764 | 17167 ft | 327 kts | 353° |
| 2026-05-04 07:22 | 37.82265 | 14.70574 | 21464 ft | 340 kts | 353° |
| 2026-05-04 07:22 | 37.84624 | 14.70252 | 21889 ft | 346 kts | 353° |
| 2026-05-04 07:23 | 37.87029 | 14.69924 | 22191 ft | 354 kts | 353° |
| 2026-05-04 07:23 | 37.89492 | 14.69589 | 22681 ft | 356 kts | 353° |
| 2026-05-04 07:23 | 37.92003 | 14.69556 | 23189 ft | 361 kts | 3° |
| 2026-05-04 07:23 | 37.94451 | 14.70173 | 23681 ft | 366 kts | 14° |
| 2026-05-04 07:24 | 37.96838 | 14.71448 | 24159 ft | 373 kts | 23° |
| 2026-05-04 07:24 | 37.99117 | 14.73029 | 24629 ft | 376 kts | 24° |
| 2026-05-04 07:24 | 38.01402 | 14.74665 | 25067 ft | 378 kts | 24° |
| 2026-05-04 07:24 | 38.03692 | 14.76312 | 25494 ft | 380 kts | 24° |
| 2026-05-04 07:25 | 38.06040 | 14.78001 | 25924 ft | 381 kts | 24° |
| 2026-05-04 07:26 | 38.22516 | 14.89844 | 28734 ft | 389 kts | 24° |
| 2026-05-04 07:27 | 38.24876 | 14.91548 | 29267 ft | 386 kts | 24° |
| 2026-05-04 07:27 | 38.27188 | 14.93217 | 29825 ft | 382 kts | 24° |
| 2026-05-04 07:27 | 38.29525 | 14.94902 | 30382 ft | 377 kts | 24° |
| 2026-05-04 07:27 | 38.31841 | 14.96575 | 30934 ft | 373 kts | 23° |
| 2026-05-04 07:28 | 38.34122 | 14.98225 | 31442 ft | 369 kts | 23° |
| 2026-05-04 07:28 | 38.36408 | 14.99876 | 31923 ft | 366 kts | 23° |
| 2026-05-04 07:28 | 38.38632 | 15.01486 | 32380 ft | 363 kts | 23° |
| 2026-05-04 07:28 | 38.40880 | 15.03085 | 32852 ft | 358 kts | 21° |
| 2026-05-04 07:29 | 38.43118 | 15.04478 | 33309 ft | 352 kts | 18° |
| 2026-05-04 07:29 | 38.45377 | 15.05663 | 33723 ft | 346 kts | 15° |
| 2026-05-04 07:29 | 38.47680 | 15.06657 | 34125 ft | 341 kts | 12° |
| 2026-05-04 07:29 | 38.50017 | 15.07465 | 34509 ft | 337 kts | 9° |
| 2026-05-04 07:30 | 38.52322 | 15.08073 | 34769 ft | 335 kts | 6° |
| 2026-05-04 07:30 | 38.54706 | 15.08502 | 34946 ft | 336 kts | 4° |
| 2026-05-04 07:30 | 38.59459 | 15.08970 | 35166 ft | 342 kts | 2° |
| 2026-05-04 07:31 | 38.61888 | 15.09181 | 35343 ft | 342 kts | 1° |
| 2026-05-04 07:31 | 38.64286 | 15.09382 | 35540 ft | 342 kts | 2° |
| 2026-05-04 07:33 | 38.81239 | 15.10778 | 36182 ft | 347 kts | 2° |
| 2026-05-04 07:33 | 38.83681 | 15.10981 | 36180 ft | 347 kts | 2° |
| 2026-05-04 07:33 | 38.88518 | 15.11378 | 36184 ft | 347 kts | 2° |
| 2026-05-04 07:34 | 38.93357 | 15.11771 | 36184 ft | 346 kts | 2° |
| 2026-05-04 07:34 | 38.98225 | 15.12172 | 36183 ft | 345 kts | 2° |
| 2026-05-04 07:35 | 39.03045 | 15.12570 | 36183 ft | 344 kts | 2° |
| 2026-05-04 07:35 | 39.07842 | 15.13170 | 36184 ft | 345 kts | 5° |
| 2026-05-04 07:36 | 39.12576 | 15.14316 | 36191 ft | 346 kts | 9° |
| 2026-05-04 07:38 | 39.31379 | 15.19970 | 36210 ft | 344 kts | 9° |
| 2026-05-04 07:38 | 39.36082 | 15.21396 | 36210 ft | 344 kts | 9° |
| 2026-05-04 07:39 | 39.40780 | 15.22823 | 36210 ft | 344 kts | 9° |
| 2026-05-04 07:39 | 39.45513 | 15.24262 | 36210 ft | 344 kts | 9° |
| 2026-05-04 07:40 | 39.50238 | 15.25705 | 36205 ft | 343 kts | 9° |
| 2026-05-04 07:40 | 39.54940 | 15.27143 | 36203 ft | 343 kts | 9° |
| 2026-05-04 07:41 | 39.59689 | 15.28595 | 36200 ft | 343 kts | 9° |
| 2026-05-04 07:41 | 39.64446 | 15.30048 | 36196 ft | 343 kts | 9° |
| 2026-05-04 07:42 | 39.69153 | 15.31491 | 36191 ft | 343 kts | 9° |
| 2026-05-04 07:42 | 39.73874 | 15.33008 | 36189 ft | 343 kts | 10° |
| 2026-05-04 07:43 | 39.78517 | 15.34619 | 36184 ft | 342 kts | 10° |
| 2026-05-04 07:43 | 39.83184 | 15.36230 | 36184 ft | 342 kts | 10° |
| 2026-05-04 07:44 | 39.87872 | 15.37849 | 36184 ft | 342 kts | 10° |
| 2026-05-04 07:44 | 39.92516 | 15.39452 | 36186 ft | 341 kts | 10° |
| 2026-05-04 07:45 | 39.97190 | 15.41065 | 36186 ft | 341 kts | 11° |
| 2026-05-04 07:45 | 40.01859 | 15.42682 | 36184 ft | 341 kts | 10° |
| 2026-05-04 07:46 | 40.06505 | 15.44289 | 36184 ft | 341 kts | 10° |
| 2026-05-04 07:46 | 40.11183 | 15.45910 | 36188 ft | 341 kts | 10° |
| 2026-05-04 07:47 | 40.15820 | 15.47517 | 36186 ft | 341 kts | 10° |
| 2026-05-04 07:49 | 40.34434 | 15.54002 | 36184 ft | 340 kts | 10° |
| 2026-05-04 07:49 | 40.39051 | 15.55609 | 36185 ft | 341 kts | 10° |
| 2026-05-04 07:50 | 40.43708 | 15.57239 | 36185 ft | 340 kts | 10° |
| 2026-05-04 07:50 | 40.48352 | 15.58866 | 36185 ft | 340 kts | 11° |
| 2026-05-04 07:51 | 40.52995 | 15.60498 | 36185 ft | 340 kts | 11° |
| 2026-05-04 07:51 | 40.57612 | 15.62118 | 36184 ft | 340 kts | 10° |
| 2026-05-04 07:52 | 40.62252 | 15.63750 | 36183 ft | 340 kts | 10° |
| 2026-05-04 07:52 | 40.66872 | 15.65380 | 36181 ft | 339 kts | 11° |
| 2026-05-04 07:54 | 40.85552 | 15.70992 | 36163 ft | 340 kts | 9° |
| 2026-05-04 07:55 | 40.90207 | 15.72314 | 36158 ft | 340 kts | 8° |
| 2026-05-04 07:55 | 40.94858 | 15.73636 | 36159 ft | 340 kts | 8° |
| 2026-05-04 07:56 | 40.99501 | 15.74960 | 36158 ft | 340 kts | 8° |
| 2026-05-04 07:56 | 41.04142 | 15.76284 | 36157 ft | 340 kts | 8° |
| 2026-05-04 07:57 | 41.08806 | 15.77623 | 36158 ft | 338 kts | 7° |
| 2026-05-04 07:57 | 41.13454 | 15.78949 | 36160 ft | 339 kts | 8° |
| 2026-05-04 07:58 | 41.18106 | 15.80281 | 36158 ft | 338 kts | 7° |
| 2026-05-04 07:58 | 41.22761 | 15.81615 | 36158 ft | 338 kts | 8° |
| 2026-05-04 07:59 | 41.27392 | 15.82943 | 36158 ft | 338 kts | 8° |
| 2026-05-04 07:59 | 41.32008 | 15.84271 | 36158 ft | 338 kts | 7° |
| 2026-05-04 08:00 | 41.36709 | 15.85621 | 36158 ft | 338 kts | 8° |
| 2026-05-04 08:02 | 41.55269 | 15.90987 | 36158 ft | 337 kts | 7° |
| 2026-05-04 08:02 | 41.59902 | 15.92330 | 36159 ft | 337 kts | 7° |
| 2026-05-04 08:03 | 41.64623 | 15.93699 | 36158 ft | 337 kts | 8° |
| 2026-05-04 08:03 | 41.69336 | 15.95072 | 36159 ft | 337 kts | 8° |
| 2026-05-04 08:04 | 41.74001 | 15.96431 | 36158 ft | 337 kts | 8° |
| 2026-05-04 08:04 | 41.78662 | 15.97791 | 36159 ft | 337 kts | 8° |
| 2026-05-04 08:05 | 41.83258 | 15.99136 | 36159 ft | 336 kts | 7° |
| 2026-05-04 08:05 | 41.87868 | 16.00482 | 36158 ft | 336 kts | 7° |
| 2026-05-04 08:06 | 41.92482 | 16.01833 | 36158 ft | 336 kts | 7° |
| 2026-05-04 08:06 | 41.97076 | 16.03182 | 36158 ft | 336 kts | 8° |
| 2026-05-04 08:08 | 42.15455 | 16.08597 | 36159 ft | 336 kts | 7° |
| 2026-05-04 08:11 | 42.36155 | 16.14737 | 36159 ft | 337 kts | 7° |
| 2026-05-04 08:11 | 42.43045 | 16.16789 | 36158 ft | 336 kts | 7° |
| 2026-05-04 08:12 | 42.47681 | 16.18172 | 36159 ft | 337 kts | 8° |
| 2026-05-04 08:12 | 42.52278 | 16.19545 | 36158 ft | 336 kts | 8° |
| 2026-05-04 08:13 | 42.56859 | 16.20915 | 36159 ft | 337 kts | 8° |
| 2026-05-04 08:13 | 42.61466 | 16.22294 | 36157 ft | 336 kts | 8° |
| 2026-05-04 08:14 | 42.66046 | 16.23669 | 36158 ft | 336 kts | 8° |
| 2026-05-04 08:16 | 42.84404 | 16.29200 | 36158 ft | 337 kts | 7° |
| 2026-05-04 08:16 | 42.88999 | 16.30587 | 36158 ft | 336 kts | 8° |
| 2026-05-04 08:17 | 42.93544 | 16.31967 | 36158 ft | 337 kts | 7° |
| 2026-05-04 08:17 | 42.98139 | 16.33364 | 36158 ft | 338 kts | 7° |
| 2026-05-04 08:19 | 43.16681 | 16.39014 | 36158 ft | 341 kts | 7° |
| 2026-05-04 08:20 | 43.21343 | 16.40440 | 36158 ft | 341 kts | 7° |
| 2026-05-04 08:20 | 43.26048 | 16.41878 | 36159 ft | 341 kts | 7° |
| 2026-05-04 08:21 | 43.30730 | 16.43314 | 36158 ft | 341 kts | 7° |
| 2026-05-04 08:21 | 43.35424 | 16.44755 | 36160 ft | 341 kts | 7° |
| 2026-05-04 08:22 | 43.40148 | 16.46209 | 36172 ft | 341 kts | 7° |
| 2026-05-04 08:24 | 43.58991 | 16.52030 | 36182 ft | 341 kts | 7° |
| 2026-05-04 08:24 | 43.63711 | 16.53492 | 36184 ft | 341 kts | 7° |
| 2026-05-04 08:25 | 43.68445 | 16.54966 | 36184 ft | 341 kts | 7° |
| 2026-05-04 08:25 | 43.73120 | 16.56420 | 36184 ft | 341 kts | 7° |
| 2026-05-04 08:27 | 43.91718 | 16.62231 | 36183 ft | 340 kts | 7° |
| 2026-05-04 08:28 | 43.96351 | 16.63681 | 36182 ft | 340 kts | 7° |
| 2026-05-04 08:28 | 44.00976 | 16.65133 | 36183 ft | 340 kts | 7° |
| 2026-05-04 08:29 | 44.05597 | 16.66587 | 36182 ft | 341 kts | 7° |
| 2026-05-04 08:31 | 44.24063 | 16.72419 | 36180 ft | 341 kts | 7° |
| 2026-05-04 08:33 | 44.42594 | 16.78308 | 36163 ft | 340 kts | 7° |
| 2026-05-04 08:35 | 44.61134 | 16.84232 | 36158 ft | 342 kts | 7° |
| 2026-05-04 08:35 | 44.65766 | 16.85718 | 36158 ft | 343 kts | 7° |
| 2026-05-04 08:37 | 44.82015 | 16.90967 | 36157 ft | 344 kts | 7° |
| 2026-05-04 08:38 | 44.86694 | 16.92486 | 36158 ft | 345 kts | 8° |
| 2026-05-04 08:38 | 44.91375 | 16.94002 | 36157 ft | 345 kts | 8° |
| 2026-05-04 08:40 | 45.10233 | 17.00147 | 36157 ft | 356 kts | 7° |
| 2026-05-04 08:41 | 45.15087 | 17.01731 | 36158 ft | 360 kts | 7° |
| 2026-05-04 08:41 | 45.19970 | 17.03329 | 36158 ft | 362 kts | 7° |
| 2026-05-04 08:42 | 45.24875 | 17.04939 | 36158 ft | 363 kts | 7° |
| 2026-05-04 08:42 | 45.29789 | 17.06558 | 36159 ft | 363 kts | 7° |
| 2026-05-04 08:43 | 45.34691 | 17.08174 | 36159 ft | 363 kts | 7° |
| 2026-05-04 08:43 | 45.39607 | 17.09796 | 36159 ft | 363 kts | 7° |
| 2026-05-04 08:44 | 45.44490 | 17.11411 | 36159 ft | 363 kts | 7° |
| 2026-05-04 08:46 | 45.64110 | 17.17925 | 36159 ft | 363 kts | 7° |
| 2026-05-04 08:46 | 45.69036 | 17.19567 | 36159 ft | 363 kts | 7° |
| 2026-05-04 08:47 | 45.73953 | 17.21209 | 36159 ft | 363 kts | 7° |
| 2026-05-04 08:47 | 45.78835 | 17.22843 | 36158 ft | 363 kts | 7° |
| 2026-05-04 08:48 | 45.83741 | 17.24486 | 36155 ft | 363 kts | 7° |
| 2026-05-04 08:48 | 45.88726 | 17.26158 | 36149 ft | 363 kts | 7° |
| 2026-05-04 08:49 | 45.93645 | 17.27813 | 36142 ft | 363 kts | 7° |
| 2026-05-04 08:50 | 46.10614 | 17.36221 | 36134 ft | 369 kts | 14° |
| 2026-05-04 08:51 | 46.15420 | 17.38968 | 36132 ft | 368 kts | 14° |
| 2026-05-04 08:51 | 46.20186 | 17.41697 | 36131 ft | 368 kts | 14° |
| 2026-05-04 08:52 | 46.24985 | 17.44451 | 36131 ft | 369 kts | 14° |
| 2026-05-04 08:52 | 46.29771 | 17.47202 | 36131 ft | 369 kts | 14° |
| 2026-05-04 08:54 | 46.48967 | 17.58291 | 36132 ft | 369 kts | 14° |
| 2026-05-04 08:55 | 46.53811 | 17.61102 | 36132 ft | 369 kts | 14° |
| 2026-05-04 08:55 | 46.58598 | 17.63886 | 36132 ft | 369 kts | 14° |
| 2026-05-04 09:01 | 47.09874 | 17.94040 | 36104 ft | 380 kts | 14° |
| 2026-05-04 09:01 | 47.14838 | 17.96993 | 36105 ft | 380 kts | 14° |
| 2026-05-04 09:02 | 47.19816 | 17.99961 | 36103 ft | 380 kts | 14° |
| 2026-05-04 09:02 | 47.24794 | 18.02934 | 36105 ft | 381 kts | 14° |
| 2026-05-04 09:03 | 47.29662 | 18.05847 | 36104 ft | 380 kts | 14° |
| 2026-05-04 09:03 | 47.34549 | 18.08776 | 36105 ft | 380 kts | 14° |
| 2026-05-04 09:04 | 47.39499 | 18.11752 | 36103 ft | 381 kts | 14° |
| 2026-05-04 09:04 | 47.44395 | 18.14698 | 36104 ft | 380 kts | 14° |
| 2026-05-04 09:05 | 47.49307 | 18.17661 | 36104 ft | 380 kts | 14° |
| 2026-05-04 09:05 | 47.54220 | 18.20632 | 36104 ft | 380 kts | 14° |
| 2026-05-04 09:06 | 47.59106 | 18.23591 | 36104 ft | 380 kts | 14° |
| 2026-05-04 09:08 | 47.78710 | 18.35525 | 36069 ft | 381 kts | 14° |
| 2026-05-04 09:08 | 47.83592 | 18.38514 | 36058 ft | 380 kts | 14° |
| 2026-05-04 09:09 | 47.88502 | 18.41527 | 36053 ft | 381 kts | 14° |
| 2026-05-04 09:09 | 47.93469 | 18.44576 | 36050 ft | 381 kts | 14° |
| 2026-05-04 09:10 | 47.98397 | 18.47611 | 36049 ft | 381 kts | 14° |
| 2026-05-04 09:10 | 48.03360 | 18.50672 | 36049 ft | 381 kts | 14° |
| 2026-05-04 09:11 | 48.08254 | 18.53699 | 36047 ft | 381 kts | 14° |
| 2026-05-04 09:11 | 48.13237 | 18.56787 | 36050 ft | 380 kts | 14° |
| 2026-05-04 09:12 | 48.18286 | 18.59922 | 36050 ft | 380 kts | 14° |
| 2026-05-04 09:14 | 48.38156 | 18.72323 | 36050 ft | 381 kts | 15° |
| 2026-05-04 09:14 | 48.43109 | 18.75430 | 36049 ft | 381 kts | 15° |
| 2026-05-04 09:15 | 48.48113 | 18.78577 | 36049 ft | 381 kts | 15° |
| 2026-05-04 09:15 | 48.53104 | 18.81721 | 36049 ft | 381 kts | 15° |
| 2026-05-04 09:17 | 48.75370 | 18.95835 | 36050 ft | 382 kts | 15° |
| 2026-05-04 09:18 | 48.80287 | 18.98965 | 36049 ft | 383 kts | 15° |
| 2026-05-04 09:18 | 48.85230 | 19.02119 | 36047 ft | 386 kts | 16° |
| 2026-05-04 09:19 | 48.90234 | 19.05320 | 36047 ft | 389 kts | 16° |
| 2026-05-04 09:19 | 48.95278 | 19.08556 | 36048 ft | 393 kts | 17° |
| 2026-05-04 09:20 | 49.00383 | 19.11837 | 36046 ft | 398 kts | 17° |
| 2026-05-04 09:20 | 49.05557 | 19.15169 | 36048 ft | 404 kts | 18° |
| 2026-05-04 09:21 | 49.10754 | 19.18528 | 36048 ft | 409 kts | 18° |
| 2026-05-04 09:21 | 49.16058 | 19.21886 | 36048 ft | 412 kts | 17° |
| 2026-05-04 09:22 | 49.21502 | 19.24922 | 36050 ft | 411 kts | 15° |
| 2026-05-04 09:22 | 49.26979 | 19.27933 | 36069 ft | 411 kts | 15° |
| 2026-05-04 09:23 | 49.32460 | 19.30958 | 36086 ft | 411 kts | 15° |
| 2026-05-04 09:23 | 49.38014 | 19.34034 | 36093 ft | 411 kts | 15° |
| 2026-05-04 09:25 | 49.59862 | 19.46347 | 36082 ft | 426 kts | 19° |
| 2026-05-04 09:26 | 49.65206 | 19.50415 | 36077 ft | 430 kts | 24° |
| 2026-05-04 09:26 | 49.70410 | 19.54908 | 36077 ft | 430 kts | 25° |
| 2026-05-04 09:27 | 49.75633 | 19.59453 | 36075 ft | 430 kts | 25° |
| 2026-05-04 09:27 | 49.80896 | 19.64036 | 36076 ft | 430 kts | 25° |
| 2026-05-04 09:28 | 49.86145 | 19.68613 | 36076 ft | 430 kts | 25° |
| 2026-05-04 09:28 | 49.91428 | 19.73228 | 36077 ft | 430 kts | 25° |
| 2026-05-04 09:29 | 49.96745 | 19.77886 | 36076 ft | 430 kts | 25° |
| 2026-05-04 09:29 | 50.02003 | 19.82501 | 36075 ft | 430 kts | 25° |
| 2026-05-04 09:30 | 50.07248 | 19.87118 | 36076 ft | 430 kts | 25° |
| 2026-05-04 09:30 | 50.12532 | 19.91781 | 36077 ft | 430 kts | 25° |
| 2026-05-04 09:31 | 50.17737 | 19.96388 | 36076 ft | 430 kts | 25° |
| 2026-05-04 09:31 | 50.23010 | 20.01066 | 36076 ft | 430 kts | 25° |
| 2026-05-04 09:32 | 50.28204 | 20.05683 | 36074 ft | 427 kts | 25° |
| 2026-05-04 09:34 | 50.48658 | 20.23987 | 36075 ft | 424 kts | 25° |
| 2026-05-04 09:34 | 50.53749 | 20.28573 | 36075 ft | 419 kts | 25° |
| 2026-05-04 09:35 | 50.58836 | 20.33166 | 36075 ft | 419 kts | 25° |
| 2026-05-04 09:35 | 50.63919 | 20.37763 | 36076 ft | 418 kts | 25° |
| 2026-05-04 09:37 | 50.84281 | 20.56294 | 36061 ft | 418 kts | 25° |
| 2026-05-04 09:38 | 50.89306 | 20.60900 | 36055 ft | 416 kts | 25° |
| 2026-05-04 09:38 | 50.94372 | 20.65551 | 36051 ft | 417 kts | 26° |
| 2026-05-04 09:39 | 50.99499 | 20.70272 | 36050 ft | 419 kts | 26° |
| 2026-05-04 09:39 | 51.04610 | 20.74987 | 36049 ft | 420 kts | 26° |
| 2026-05-04 09:40 | 51.09739 | 20.79730 | 36050 ft | 421 kts | 26° |
| 2026-05-04 09:40 | 51.14886 | 20.84506 | 36050 ft | 421 kts | 26° |
| 2026-05-04 09:42 | 51.35273 | 21.03546 | 36049 ft | 425 kts | 27° |
| 2026-05-04 09:43 | 51.40413 | 21.08380 | 36049 ft | 426 kts | 27° |
| 2026-05-04 09:43 | 51.45570 | 21.13243 | 36049 ft | 428 kts | 27° |
| 2026-05-04 09:44 | 51.50699 | 21.18095 | 36050 ft | 428 kts | 27° |
| 2026-05-04 09:46 | 51.71321 | 21.37728 | 36050 ft | 428 kts | 27° |
| 2026-05-04 09:46 | 51.76469 | 21.42660 | 36050 ft | 428 kts | 27° |
| 2026-05-04 09:47 | 51.81600 | 21.47591 | 36050 ft | 428 kts | 27° |
| 2026-05-04 09:49 | 52.02068 | 21.67408 | 36020 ft | 428 kts | 28° |
| 2026-05-04 09:51 | 52.20058 | 21.84988 | 36003 ft | 428 kts | 28° |
| 2026-05-04 09:51 | 52.25174 | 21.90023 | 35998 ft | 428 kts | 28° |
| 2026-05-04 09:52 | 52.30292 | 21.95072 | 35996 ft | 428 kts | 28° |
| 2026-05-04 09:52 | 52.35420 | 22.00144 | 35995 ft | 428 kts | 28° |
| 2026-05-04 09:53 | 52.40507 | 22.05186 | 35995 ft | 428 kts | 28° |
| 2026-05-04 09:53 | 52.45623 | 22.10271 | 35995 ft | 428 kts | 28° |
| 2026-05-04 09:54 | 52.50710 | 22.15340 | 35998 ft | 428 kts | 28° |
| 2026-05-04 09:54 | 52.55812 | 22.20436 | 36003 ft | 428 kts | 28° |
| 2026-05-04 09:55 | 52.60935 | 22.25568 | 36005 ft | 428 kts | 28° |
| 2026-05-04 09:55 | 52.66054 | 22.30711 | 36003 ft | 428 kts | 28° |
| 2026-05-04 09:56 | 52.71193 | 22.35825 | 35999 ft | 428 kts | 26° |
| 2026-05-04 09:56 | 52.76509 | 22.40175 | 36000 ft | 425 kts | 20° |
| 2026-05-04 09:57 | 52.82068 | 22.43485 | 36002 ft | 423 kts | 13° |
| 2026-05-04 09:57 | 52.87803 | 22.45818 | 36003 ft | 422 kts | 9° |
| 2026-05-04 09:58 | 52.93521 | 22.47855 | 36001 ft | 422 kts | 9° |
| 2026-05-04 09:58 | 52.99232 | 22.49903 | 35998 ft | 421 kts | 9° |
| 2026-05-04 10:00 | 53.22374 | 22.58606 | 35952 ft | 419 kts | 14° |
| 2026-05-04 10:02 | 53.40819 | 22.73442 | 35941 ft | 423 kts | 26° |
| 2026-05-04 10:04 | 53.58817 | 22.90144 | 35941 ft | 423 kts | 26° |
| 2026-05-04 10:04 | 53.63983 | 22.94965 | 35940 ft | 422 kts | 26° |
| 2026-05-04 10:04 | 53.66589 | 22.97400 | 35486 ft | 426 kts | 26° |
| 2026-05-04 10:05 | 53.69216 | 22.99858 | 34746 ft | 429 kts | 26° |
| 2026-05-04 10:05 | 53.71846 | 23.02324 | 34060 ft | 429 kts | 26° |
| 2026-05-04 10:05 | 53.74479 | 23.04797 | 33380 ft | 430 kts | 26° |
| 2026-05-04 10:05 | 53.77090 | 23.07254 | 32705 ft | 430 kts | 26° |
| 2026-05-04 10:06 | 53.79716 | 23.09728 | 32026 ft | 431 kts | 26° |
| 2026-05-04 10:06 | 53.82363 | 23.12223 | 31333 ft | 432 kts | 26° |
| 2026-05-04 10:06 | 53.84997 | 23.14710 | 30638 ft | 433 kts | 26° |
| 2026-05-04 10:08 | 54.00835 | 23.29744 | 26893 ft | 431 kts | 27° |
| 2026-05-04 10:08 | 54.03203 | 23.32775 | 26394 ft | 433 kts | 44° |
| 2026-05-04 10:08 | 54.04961 | 23.36941 | 25883 ft | 434 kts | 62° |
| 2026-05-04 10:08 | 54.05950 | 23.41852 | 25378 ft | 432 kts | 75° |
| 2026-05-04 10:09 | 54.06629 | 23.46859 | 24881 ft | 429 kts | 75° |
| 2026-05-04 10:09 | 54.07414 | 23.51775 | 24387 ft | 426 kts | 71° |
| 2026-05-04 10:09 | 54.08417 | 23.56613 | 23850 ft | 423 kts | 66° |
| 2026-05-04 10:09 | 54.09563 | 23.61220 | 23296 ft | 422 kts | 65° |
| 2026-05-04 10:10 | 54.10773 | 23.65851 | 22787 ft | 419 kts | 65° |
| 2026-05-04 10:10 | 54.11988 | 23.70459 | 22280 ft | 416 kts | 65° |
| 2026-05-04 10:10 | 54.13166 | 23.74943 | 21787 ft | 413 kts | 65° |
| 2026-05-04 10:10 | 54.14356 | 23.79495 | 21285 ft | 411 kts | 65° |
| 2026-05-04 10:11 | 54.15532 | 23.84009 | 20787 ft | 408 kts | 66° |
| 2026-05-04 10:11 | 54.16686 | 23.88455 | 20296 ft | 405 kts | 66° |
| 2026-05-04 10:11 | 54.17846 | 23.92935 | 19800 ft | 402 kts | 66° |
| 2026-05-04 10:11 | 54.18973 | 23.97293 | 19316 ft | 399 kts | 66° |
| 2026-05-04 10:12 | 54.20094 | 24.01641 | 18832 ft | 396 kts | 66° |
| 2026-05-04 10:12 | 54.21207 | 24.05968 | 18347 ft | 394 kts | 66° |
| 2026-05-04 10:12 | 54.22320 | 24.10299 | 17861 ft | 391 kts | 66° |
| 2026-05-04 10:12 | 54.23403 | 24.14520 | 17386 ft | 388 kts | 66° |
| 2026-05-04 10:13 | 54.24490 | 24.18771 | 16905 ft | 385 kts | 66° |
| 2026-05-04 10:13 | 54.25571 | 24.23010 | 16424 ft | 382 kts | 66° |
| 2026-05-04 10:13 | 54.26640 | 24.27204 | 15946 ft | 380 kts | 67° |
| 2026-05-04 10:13 | 54.27925 | 24.31200 | 15425 ft | 378 kts | 50° |
| 2026-05-04 10:14 | 54.29953 | 24.34063 | 14931 ft | 375 kts | 26° |
| 2026-05-04 10:14 | 54.32380 | 24.35459 | 14472 ft | 370 kts | 12° |
| 2026-05-04 10:16 | 54.49727 | 24.42023 | 12767 ft | 363 kts | 12° |
| 2026-05-04 10:16 | 54.52194 | 24.43004 | 12792 ft | 363 kts | 12° |
| 2026-05-04 10:16 | 54.54653 | 24.43982 | 12818 ft | 363 kts | 12° |
| 2026-05-04 10:16 | 54.57091 | 24.45048 | 12828 ft | 363 kts | 19° |
| 2026-05-04 10:17 | 54.59326 | 24.47081 | 12568 ft | 365 kts | 37° |
| 2026-05-04 10:17 | 54.61084 | 24.50203 | 12001 ft | 364 kts | 52° |
| 2026-05-04 10:19 | 54.71112 | 24.73478 | 9952 ft | 304 kts | 54° |
| 2026-05-04 10:19 | 54.72398 | 24.76425 | 9741 ft | 297 kts | 54° |
| 2026-05-04 10:19 | 54.73642 | 24.79278 | 9374 ft | 296 kts | 54° |
| 2026-05-04 10:19 | 54.74887 | 24.82141 | 9009 ft | 294 kts | 54° |
| 2026-05-04 10:20 | 54.76128 | 24.84997 | 8663 ft | 292 kts | 54° |
| 2026-05-04 10:20 | 54.77340 | 24.87790 | 8334 ft | 290 kts | 54° |
| 2026-05-04 10:20 | 54.78563 | 24.90609 | 8004 ft | 288 kts | 54° |
| 2026-05-04 10:20 | 54.79768 | 24.93389 | 7680 ft | 286 kts | 54° |
| 2026-05-04 10:21 | 54.80964 | 24.96150 | 7359 ft | 284 kts | 54° |
| 2026-05-04 10:21 | 54.82162 | 24.98921 | 7037 ft | 282 kts | 54° |
| 2026-05-04 10:21 | 54.83352 | 25.01678 | 6716 ft | 280 kts | 54° |
| 2026-05-04 10:21 | 54.84512 | 25.04368 | 6402 ft | 278 kts | 54° |
| 2026-05-04 10:22 | 54.86521 | 25.10022 | 5729 ft | 273 kts | 81° |
| 2026-05-04 10:22 | 54.86468 | 25.13293 | 5400 ft | 267 kts | 104° |
| 2026-05-04 10:22 | 54.86024 | 25.16395 | 5221 ft | 258 kts | 108° |
| 2026-05-04 10:23 | 54.85556 | 25.19417 | 5142 ft | 245 kts | 107° |
| 2026-05-04 10:23 | 54.85128 | 25.22276 | 5062 ft | 235 kts | 107° |
| 2026-05-04 10:25 | 54.79691 | 25.39292 | 2992 ft | 216 kts | 182° |
| 2026-05-04 10:25 | 54.78216 | 25.38881 | 3000 ft | 198 kts | 199° |
| 2026-05-04 10:25 | 54.76921 | 25.38027 | 3015 ft | 190 kts | 204° |
| 2026-05-04 10:25 | 54.75669 | 25.37092 | 3031 ft | 182 kts | 204° |
| 2026-05-04 10:26 | 54.74493 | 25.36240 | 2806 ft | 176 kts | 203° |
| 2026-05-04 10:26 | 54.73344 | 25.35436 | 2534 ft | 171 kts | 202° |
| 2026-05-04 10:26 | 54.72233 | 25.34673 | 2268 ft | 159 kts | 202° |
| 2026-05-04 10:26 | 54.71220 | 25.33978 | 2058 ft | 145 kts | 203° |
| 2026-05-04 10:27 | 54.70307 | 25.33351 | 1851 ft | 128 kts | 203° |
| 2026-05-04 10:27 | 54.69459 | 25.32765 | 1680 ft | 125 kts | 203° |
| 2026-05-04 10:27 | 54.68628 | 25.32189 | 1527 ft | 125 kts | 203° |
| 2026-05-04 10:27 | 54.67790 | 25.31610 | 1365 ft | 125 kts | 203° |
| 2026-05-04 10:28 | 54.66969 | 25.31042 | 1192 ft | 124 kts | 203° |
| 2026-05-04 10:28 | 54.66159 | 25.30482 | 1023 ft | 124 kts | 203° |
| 2026-05-04 10:28 | 54.65344 | 25.29922 | 857 ft | 124 kts | 203° |
| 2026-05-04 10:28 | 54.64544 | 25.29363 | 701 ft | 123 kts | 204° |
| 2026-05-04 10:29 | 54.63783 | 25.28830 | 620 ft | 101 kts | 202° |
| 2026-05-04 10:29 | 54.63291 | 25.28487 | 595 ft | 51 kts | 202° |
| 2026-05-04 10:29 | 54.63043 | 25.28322 | 590 ft | 21 kts | 198° |
| 2026-05-04 10:29 | 54.62944 | 25.28182 | 588 ft | 15 kts | 297° |
| 2026-05-04 10:30 | 54.62981 | 25.28106 | 590 ft | 6 kts | 285° |
| 2026-05-04 10:30 | 54.62991 | 25.28040 | 592 ft | 4 kts | 289° |
| 2026-05-04 10:30 | 54.63021 | 25.28008 | 593 ft | 12 kts | 4° |
| 2026-05-04 10:30 | 54.63144 | 25.28079 | 594 ft | 20 kts | 24° |
| 2026-05-04 10:31 | 54.63269 | 25.28164 | 597 ft | 18 kts | 21° |
| 2026-05-04 10:31 | 54.63382 | 25.28243 | 599 ft | 17 kts | 21° |
| 2026-05-04 10:32 | 54.63864 | 25.28262 | 616 ft | 11 kts | 347° |
| 2026-05-04 10:33 | 54.63939 | 25.28233 | 618 ft | 10 kts | 347° |
| 2026-05-04 10:33 | 54.64005 | 25.28207 | 620 ft | 8 kts | 347° |
| 2026-05-04 10:33 | 54.64059 | 25.28186 | 622 ft | 7 kts | 347° |
| 2026-05-04 10:33 | 54.64104 | 25.28167 | 623 ft | 5 kts | 346° |
| 2026-05-04 10:34 | 54.64140 | 25.28161 | 624 ft | 4 kts | 10° |
| 2026-05-04 10:34 | 54.64159 | 25.28179 | 625 ft | 2 kts | 42° |
| 2026-05-04 10:34 | 54.64175 | 25.28194 | 625 ft | 3 kts | 15° |
| 2026-05-04 10:34 | 54.64200 | 25.28199 | 625 ft | 4 kts | 1° |
| 2026-05-04 10:35 | 54.64234 | 25.28199 | 625 ft | 4 kts | 359° |
| 2026-05-04 10:35 | 54.64241 | 25.28199 | 625 ft | 0 kts | 359° |